Time;durP1;ratioP1;P1;durP2;ratioP2;P2;SDS_P1;SDS_P2;PMS_P1;PMS_P2;Temp;Humidity;BMP_temperature;BMP_pressure;BME280_temperature;BME280_humidity;BME280_pressure;Samples;Min_cycle;Max_cycle;Signal;HPM_P1;HPM_P2
2023/09/07 00:01:31;;;;;;;21.02;14.38;;;14.70;99.90;;;;;;5016603;28;20025;-68
2023/09/07 00:03:57;;;;;;;19.25;13.95;;;14.70;99.90;;;;;;5016585;28;20063;-68
2023/09/07 00:06:23;;;;;;;18.13;13.77;;;14.60;99.90;;;;;;5016151;28;20096;-68
2023/09/07 00:08:49;;;;;;;18.40;13.27;;;14.60;99.90;;;;;;5016784;28;20029;-68
2023/09/07 00:11:15;;;;;;;20.17;13.15;;;14.60;99.90;;;;;;5016279;28;20034;-68
2023/09/07 00:13:40;;;;;;;19.90;13.77;;;14.50;99.90;;;;;;5016379;28;20061;-68
2023/09/07 00:16:07;;;;;;;18.67;13.43;;;14.50;99.90;;;;;;5016350;28;20049;-68
2023/09/07 00:18:34;;;;;;;16.65;13.07;;;14.50;99.90;;;;;;5016513;28;20076;-68
2023/09/07 00:21:00;;;;;;;18.55;13.82;;;14.50;99.90;;;;;;5016242;28;20113;-68
2023/09/07 00:23:26;;;;;;;21.00;13.52;;;14.50;99.90;;;;;;5016451;28;20022;-68
2023/09/07 00:25:53;;;;;;;16.92;12.73;;;14.50;99.90;;;;;;5035891;28;20391;-68
2023/09/07 00:28:18;;;;;;;22.40;13.25;;;14.40;99.90;;;;;;5035886;28;20029;-68
2023/09/07 00:30:44;;;;;;;18.85;13.00;;;14.40;99.90;;;;;;5035790;28;20029;-68
2023/09/07 00:33:11;;;;;;;18.80;12.55;;;14.40;99.90;;;;;;5035879;28;20022;-68
2023/09/07 00:35:37;;;;;;;20.90;13.93;;;14.30;99.90;;;;;;5034557;28;20033;-68
2023/09/07 00:38:03;;;;;;;18.58;14.70;;;14.30;99.90;;;;;;5034522;28;20059;-68
2023/09/07 00:40:30;;;;;;;18.52;13.60;;;14.30;99.90;;;;;;5035624;28;20039;-68
2023/09/07 00:42:56;;;;;;;19.75;13.18;;;14.40;99.90;;;;;;5034290;28;20135;-68
2023/09/07 00:45:22;;;;;;;21.20;12.85;;;14.30;99.90;;;;;;5034405;28;20083;-68
2023/09/07 00:47:48;;;;;;;17.83;12.10;;;14.30;99.90;;;;;;5034294;28;20433;-68
2023/09/07 00:50:16;;;;;;;20.02;13.10;;;14.30;99.90;;;;;;5034144;28;20034;-68
2023/09/07 00:52:43;;;;;;;21.30;13.07;;;14.30;99.90;;;;;;5031836;28;20029;-68
2023/09/07 00:55:10;;;;;;;19.83;12.55;;;14.30;99.90;;;;;;5015845;28;20030;-68
2023/09/07 00:57:39;;;;;;;18.23;13.32;;;14.30;99.90;;;;;;5014540;28;20026;-68
2023/09/07 01:00:07;;;;;;;15.05;12.32;;;14.20;99.90;;;;;;5014399;28;20033;-68
2023/09/07 01:02:34;;;;;;;19.10;13.43;;;14.30;99.90;;;;;;5015530;28;20033;-68
2023/09/07 01:05:02;;;;;;;20.10;12.90;;;14.30;99.90;;;;;;5013470;28;20041;-68
2023/09/07 01:07:40;;;;;;;19.15;13.27;;;14.30;99.90;;;;;;5014144;28;20033;-68
2023/09/07 01:10:08;;;;;;;18.52;12.07;;;14.30;99.90;;;;;;5014221;28;20112;-68
2023/09/07 01:12:34;;;;;;;16.83;12.55;;;14.30;99.90;;;;;;5014126;28;20510;-68
2023/09/07 01:15:00;;;;;;;15.77;11.93;;;14.30;99.90;;;;;;5015195;28;20065;-68
2023/09/07 01:17:27;;;;;;;19.60;11.75;;;14.20;99.90;;;;;;5015407;28;20029;-68
2023/09/07 01:19:57;;;;;;;16.80;11.98;;;14.20;99.90;;;;;;5013873;28;20108;-68
2023/09/07 01:22:23;;;;;;;20.00;12.70;;;14.30;99.90;;;;;;5015350;28;20025;-68
2023/09/07 01:24:52;;;;;;;16.25;12.35;;;14.20;99.90;;;;;;5026814;28;20033;-68
2023/09/07 01:27:18;;;;;;;19.48;12.63;;;14.10;99.90;;;;;;5034792;28;20037;-68
2023/09/07 01:29:44;;;;;;;19.05;12.52;;;14.10;99.90;;;;;;5033531;28;20493;-68
2023/09/07 01:32:10;;;;;;;20.70;12.35;;;14.10;99.90;;;;;;5033403;28;20021;-68
2023/09/07 01:34:37;;;;;;;19.17;12.30;;;14.20;99.90;;;;;;5034743;28;20025;-68
2023/09/07 01:37:03;;;;;;;17.92;11.68;;;14.10;99.90;;;;;;5034842;28;20025;-68
2023/09/07 01:39:28;;;;;;;20.05;11.77;;;14.30;99.90;;;;;;5034495;28;20036;-68
2023/09/07 01:41:54;;;;;;;14.90;11.45;;;14.10;99.90;;;;;;5034614;28;20029;-68
2023/09/07 01:44:20;;;;;;;16.98;12.05;;;14.00;99.90;;;;;;5034710;28;20044;-68
2023/09/07 01:46:46;;;;;;;12.88;11.13;;;14.20;99.90;;;;;;5034511;28;20391;-68
2023/09/07 01:49:12;;;;;;;15.95;12.00;;;14.10;99.90;;;;;;5034469;28;20026;-68
2023/09/07 01:51:38;;;;;;;16.38;11.32;;;14.00;99.90;;;;;;5033333;28;20032;-68
2023/09/07 01:54:05;;;;;;;19.20;12.27;;;13.90;99.90;;;;;;5019860;28;20036;-68
2023/09/07 01:56:31;;;;;;;24.75;11.65;;;13.80;99.90;;;;;;5013370;28;20033;-68
2023/09/07 01:58:57;;;;;;;18.38;11.68;;;13.80;99.90;;;;;;5013505;28;20373;-68
2023/09/07 02:01:23;;;;;;;18.70;12.60;;;13.80;99.90;;;;;;5013381;28;20503;-68
2023/09/07 02:03:49;;;;;;;17.40;12.60;;;13.80;99.90;;;;;;5013572;28;20476;-68
2023/09/07 02:06:15;;;;;;;16.67;12.95;;;13.70;99.90;;;;;;5014436;28;20189;-68
2023/09/07 02:08:42;;;;;;;17.52;12.13;;;13.60;99.90;;;;;;5013265;28;20033;-68
2023/09/07 02:11:08;;;;;;;14.23;11.85;;;13.60;99.90;;;;;;5014475;28;20076;-68
2023/09/07 02:13:34;;;;;;;14.68;12.27;;;13.50;99.90;;;;;;5013316;28;20034;-68
2023/09/07 02:16:06;;;;;;;16.25;12.05;;;13.50;99.90;;;;;;5014695;28;20052;-68
2023/09/07 02:18:33;;;;;;;16.17;11.88;;;13.60;99.90;;;;;;5016432;28;20349;-68
2023/09/07 02:21:03;;;;;;;17.27;11.75;;;13.60;99.90;;;;;;5017339;28;20037;-68
2023/09/07 02:23:33;;;;;;;16.83;11.68;;;13.70;99.90;;;;;;5019017;28;20083;-68
2023/09/07 02:25:59;;;;;;;21.67;12.57;;;13.70;99.90;;;;;;5038310;28;20060;-68
2023/09/07 02:28:25;;;;;;;16.58;12.25;;;13.70;99.90;;;;;;5036817;28;20065;-68
2023/09/07 02:30:52;;;;;;;18.38;12.88;;;13.60;99.90;;;;;;5037965;28;20033;-68
2023/09/07 02:33:18;;;;;;;15.10;11.63;;;13.60;99.90;;;;;;5038216;28;20056;-68
2023/09/07 02:35:44;;;;;;;19.90;11.38;;;13.70;99.90;;;;;;5036635;28;20367;-68
2023/09/07 02:38:10;;;;;;;18.30;12.68;;;13.70;99.90;;;;;;5037943;28;20025;-68
2023/09/07 02:40:43;;;;;;;17.70;11.90;;;13.60;99.90;;;;;;5036788;28;20034;-68
2023/09/07 02:43:10;;;;;;;16.02;12.00;;;13.60;99.90;;;;;;5036824;28;20061;-68
2023/09/07 02:45:36;;;;;;;17.50;10.82;;;13.60;99.90;;;;;;5036510;28;20091;-68
2023/09/07 02:48:04;;;;;;;16.08;11.15;;;13.60;99.90;;;;;;5036814;28;20025;-68
2023/09/07 02:50:33;;;;;;;20.52;12.90;;;13.60;99.90;;;;;;5036367;28;20037;-68
2023/09/07 02:53:00;;;;;;;17.95;12.60;;;13.50;99.90;;;;;;5031802;28;20026;-68
2023/09/07 02:55:28;;;;;;;20.63;13.60;;;13.50;99.90;;;;;;5016845;28;20026;-68
2023/09/07 02:57:56;;;;;;;19.33;13.50;;;13.40;99.90;;;;;;5016609;28;20026;-68
2023/09/07 03:00:22;;;;;;;16.77;12.13;;;13.40;99.90;;;;;;5016684;28;20034;-68
2023/09/07 03:02:49;;;;;;;16.52;11.45;;;13.40;99.90;;;;;;5017891;28;20026;-68
2023/09/07 03:05:16;;;;;;;18.00;11.68;;;13.40;99.90;;;;;;5017420;28;20113;-68
2023/09/07 03:07:45;;;;;;;16.23;12.05;;;13.40;99.90;;;;;;5016518;28;20030;-68
2023/09/07 03:10:12;;;;;;;16.75;11.88;;;13.40;99.90;;;;;;5016599;28;20037;-68
2023/09/07 03:12:40;;;;;;;18.02;12.43;;;13.40;99.90;;;;;;5016241;28;20030;-68
2023/09/07 03:15:07;;;;;;;17.23;12.75;;;13.30;99.90;;;;;;5016281;28;20506;-68
2023/09/07 03:17:33;;;;;;;18.45;13.88;;;13.30;99.90;;;;;;5016341;28;20117;-68
2023/09/07 03:20:04;;;;;;;19.73;13.52;;;13.20;99.90;;;;;;5016029;28;20030;-68
2023/09/07 03:22:31;;;;;;;;;;;13.20;99.90;;;;;;5016663;28;20087;-68
2023/09/07 03:24:57;;;;;;;21.63;14.02;;;13.20;99.90;;;;;;5028409;28;19920;-68
2023/09/07 03:27:23;;;;;;;19.02;12.98;;;13.20;99.90;;;;;;5035659;28;20483;-68
2023/09/07 03:29:51;;;;;;;16.27;10.85;;;13.20;99.90;;;;;;5035254;28;20118;-68
2023/09/07 03:32:19;;;;;;;21.13;13.20;;;13.30;99.90;;;;;;5035720;28;20028;-68
2023/09/07 03:34:45;;;;;;;16.08;12.88;;;13.30;99.90;;;;;;5035738;28;20025;-68
2023/09/07 03:37:11;;;;;;;17.23;12.63;;;13.20;99.90;;;;;;5036997;28;20483;-68
2023/09/07 03:39:38;;;;;;;17.83;12.85;;;13.20;99.90;;;;;;5036773;28;20113;-68
2023/09/07 03:42:04;;;;;;;20.05;12.77;;;13.20;99.90;;;;;;5035592;28;20029;-68
2023/09/07 03:44:30;;;;;;;21.27;12.98;;;13.10;99.90;;;;;;5035429;28;20035;-68
2023/09/07 03:46:56;;;;;;;14.82;12.45;;;13.10;99.90;;;;;;5035441;28;20112;-68
2023/09/07 03:49:22;;;;;;;19.58;13.50;;;13.10;99.90;;;;;;5036647;28;20099;-68
2023/09/07 03:51:48;;;;;;;16.65;12.10;;;13.20;99.90;;;;;;5035481;28;20026;-68
2023/09/07 03:54:14;;;;;;;16.75;12.30;;;13.30;99.90;;;;;;5020461;28;20030;-68
2023/09/07 03:56:39;;;;;;;17.42;12.45;;;13.10;99.90;;;;;;5016684;28;20025;-68
2023/09/07 03:59:07;;;;;;;23.42;13.63;;;13.20;99.90;;;;;;5015510;28;20025;-68
2023/09/07 04:01:34;;;;;;;29.13;14.18;;;13.30;99.90;;;;;;5015547;28;20171;-68
2023/09/07 04:04:00;;;;;;;20.70;11.63;;;13.30;99.90;;;;;;5015149;28;20116;-68
2023/09/07 04:06:26;;;;;;;24.33;13.15;;;13.30;99.90;;;;;;5015216;28;20050;-68
2023/09/07 04:08:52;;;;;;;23.30;11.85;;;13.30;99.90;;;;;;5015224;28;20045;-68
2023/09/07 04:11:18;;;;;;;20.52;11.32;;;13.30;99.90;;;;;;5016424;28;20045;-68
2023/09/07 04:13:44;;;;;;;17.17;11.73;;;13.20;99.90;;;;;;5015342;28;20037;-68
2023/09/07 04:16:10;;;;;;;16.13;10.98;;;13.30;99.90;;;;;;5014789;28;20049;-68
2023/09/07 04:18:36;;;;;;;19.15;11.52;;;13.20;99.90;;;;;;5015109;28;20034;-68
2023/09/07 04:21:06;;;;;;;14.88;11.73;;;13.10;99.90;;;;;;5015128;28;20319;-68
2023/09/07 04:23:34;;;;;;;22.25;12.43;;;13.10;99.90;;;;;;5015851;28;20034;-68
2023/09/07 04:26:08;;;;;;;17.67;11.85;;;13.00;99.90;;;;;;5034714;28;20376;-68
2023/09/07 04:28:34;;;;;;;18.17;10.88;;;13.00;99.90;;;;;;5034713;28;20033;-68
2023/09/07 04:31:01;;;;;;;16.02;11.25;;;13.00;99.90;;;;;;5034370;28;20112;-68
2023/09/07 04:33:30;;;;;;;21.02;11.65;;;13.00;99.90;;;;;;5034553;28;20033;-68
2023/09/07 04:35:56;;;;;;;20.08;12.60;;;12.90;99.90;;;;;;5035689;28;20536;-68
2023/09/07 04:38:22;;;;;;;21.80;12.82;;;13.00;99.90;;;;;;5035670;28;20108;-68
2023/09/07 04:40:48;;;;;;;20.77;12.93;;;13.20;99.90;;;;;;5033557;28;20483;-68
2023/09/07 04:43:14;;;;;;;20.65;12.30;;;13.10;99.90;;;;;;5034318;28;20044;-68
2023/09/07 04:45:47;;;;;;;18.58;11.50;;;13.10;99.90;;;;;;5034243;28;20486;-68
2023/09/07 04:48:13;;;;;;;19.90;12.50;;;13.10;99.90;;;;;;5034332;28;20029;-68
2023/09/07 04:50:39;;;;;;;18.38;11.77;;;13.30;99.90;;;;;;5035481;28;20028;-68
2023/09/07 04:53:05;;;;;;;16.58;12.07;;;13.30;99.90;;;;;;5028717;28;20030;-68
2023/09/07 04:55:31;;;;;;;17.65;11.57;;;13.30;99.90;;;;;;5015639;28;20022;-68
2023/09/07 04:57:56;;;;;;;21.60;12.45;;;13.30;99.90;;;;;;5014284;28;20030;-68
2023/09/07 05:00:22;;;;;;;27.67;13.38;;;13.30;99.90;;;;;;5014303;28;20044;-68
2023/09/07 05:02:48;;;;;;;21.15;13.13;;;13.60;99.90;;;;;;5014296;28;20038;-68
2023/09/07 05:05:14;;;;;;;24.42;12.73;;;13.50;99.90;;;;;;5027884;28;20050;-68
2023/09/07 05:07:41;;;;;;;19.70;13.15;;;13.50;99.90;;;;;;5033859;28;20029;-68
2023/09/07 05:10:12;;;;;;;24.55;14.45;;;13.50;99.90;;;;;;5035269;28;20029;-68
2023/09/07 05:12:38;;;;;;;19.20;12.07;;;13.60;99.90;;;;;;5034234;28;20655;-68
2023/09/07 05:15:06;;;;;;;20.17;12.43;;;13.60;99.90;;;;;;5034493;28;20029;-68
2023/09/07 05:17:33;;;;;;;21.38;12.38;;;13.70;99.90;;;;;;5035908;28;20056;-68
2023/09/07 05:19:59;;;;;;;27.95;14.70;;;13.80;99.90;;;;;;5034373;28;20030;-68
2023/09/07 05:22:26;;;;;;;24.70;15.25;;;13.80;99.90;;;;;;5035831;28;20056;-68
2023/09/07 05:24:52;;;;;;;26.05;15.80;;;13.90;99.90;;;;;;5021843;28;20491;-68
2023/09/07 05:27:18;;;;;;;34.10;12.00;;;14.20;99.90;;;;;;5012593;28;20040;-68
2023/09/07 05:29:44;;;;;;;23.52;12.50;;;14.40;99.90;;;;;;5014206;28;20395;-68
2023/09/07 05:32:10;;;;;;;27.90;14.43;;;14.40;99.90;;;;;;5014387;28;20025;-68
2023/09/07 05:34:36;;;;;;;23.20;13.02;;;14.50;99.90;;;;;;5015652;28;20025;-68
2023/09/07 05:37:02;;;;;;;30.80;13.23;;;14.50;99.90;;;;;;5020937;28;20022;-68
2023/09/07 05:39:28;;;;;;;23.33;13.65;;;14.70;99.90;;;;;;5033940;28;20017;-68
2023/09/07 05:41:54;;;;;;;25.23;13.10;;;14.70;99.90;;;;;;5035415;28;20044;-68
2023/09/07 05:44:20;;;;;;;28.70;13.90;;;14.70;99.90;;;;;;5033811;28;20025;-68
2023/09/07 05:46:47;;;;;;;22.38;14.27;;;14.90;99.90;;;;;;5033731;28;20052;-68
2023/09/07 05:49:13;;;;;;;22.35;14.20;;;15.00;99.90;;;;;;5032746;28;20057;-68
2023/09/07 05:51:39;;;;;;;21.63;13.23;;;15.00;99.90;;;;;;5031781;28;20037;-68
2023/09/07 05:54:05;;;;;;;23.05;14.45;;;15.30;99.90;;;;;;5021239;28;20022;-68
2023/09/07 05:56:33;;;;;;;24.52;14.18;;;15.50;99.90;;;;;;5026073;28;20382;-68
2023/09/07 05:58:59;;;;;;;26.63;12.95;;;15.60;99.90;;;;;;5032994;28;20025;-68
2023/09/07 06:01:25;;;;;;;22.88;13.52;;;15.80;99.90;;;;;;5033605;28;20098;-68
2023/09/07 06:03:51;;;;;;;25.90;12.88;;;15.80;99.90;;;;;;5026995;28;20041;-68
2023/09/07 06:06:17;;;;;;;24.00;14.13;;;16.10;99.90;;;;;;5031147;28;20045;-68
2023/09/07 06:08:43;;;;;;;25.92;14.45;;;16.10;99.90;;;;;;5031841;28;20125;-68
2023/09/07 06:11:09;;;;;;;21.77;14.55;;;16.20;99.90;;;;;;5032752;28;20032;-68
2023/09/07 06:13:35;;;;;;;24.38;15.07;;;16.20;99.90;;;;;;5029816;28;20375;-68
2023/09/07 06:16:01;;;;;;;21.98;14.88;;;16.30;99.90;;;;;;5032474;28;20029;-68
2023/09/07 06:18:28;;;;;;;23.73;14.73;;;16.30;99.90;;;;;;5033430;28;20033;-68
2023/09/07 06:20:54;;;;;;;26.15;13.75;;;16.60;99.90;;;;;;5033271;28;20045;-68
2023/09/07 06:23:20;;;;;;;22.52;14.48;;;16.90;99.90;;;;;;5027528;28;20026;-68
2023/09/07 06:25:46;;;;;;;25.02;13.52;;;17.20;99.90;;;;;;5033173;28;20032;-68
2023/09/07 06:28:15;;;;;;;32.65;14.05;;;17.60;99.90;;;;;;5033268;28;20033;-68
2023/09/07 06:30:41;;;;;;;24.52;12.27;;;18.00;99.90;;;;;;5033136;28;20056;-68
2023/09/07 06:33:07;;;;;;;20.88;12.48;;;18.20;99.90;;;;;;5033264;28;20034;-68
2023/09/07 06:35:34;;;;;;;33.10;14.25;;;18.30;99.90;;;;;;5034871;28;20026;-68
2023/09/07 06:37:59;;;;;;;28.30;12.70;;;18.70;99.90;;;;;;5034355;28;20529;-68
2023/09/07 06:40:26;;;;;;;34.80;13.13;;;19.20;99.90;;;;;;5032575;28;20026;-68
2023/09/07 06:42:56;;;;;;;34.28;12.52;;;19.30;99.90;;;;;;5033116;28;20478;-68
2023/09/07 06:45:24;;;;;;;28.55;12.35;;;19.70;99.90;;;;;;5033110;28;20094;-68
2023/09/07 06:47:53;;;;;;;25.95;11.98;;;20.00;99.90;;;;;;5034631;28;20030;-68
2023/09/07 06:50:22;;;;;;;27.25;12.93;;;20.30;99.90;;;;;;5027128;28;20545;-68
2023/09/07 06:52:48;;;;;;;31.55;12.80;;;20.40;99.10;;;;;;5016115;28;20021;-68
2023/09/07 06:55:14;;;;;;;30.48;12.93;;;20.70;98.10;;;;;;5033145;28;20033;-68
2023/09/07 06:57:40;;;;;;;27.63;13.05;;;21.10;97.70;;;;;;5034596;28;20056;-68
2023/09/07 07:00:07;;;;;;;28.63;13.07;;;21.40;96.10;;;;;;5033088;28;20053;-68
2023/09/07 07:02:34;;;;;;;28.90;13.73;;;21.30;95.40;;;;;;5031112;28;20120;-68
2023/09/07 07:05:02;;;;;;;31.45;14.68;;;21.80;94.40;;;;;;5035661;28;20456;-68
2023/09/07 07:07:29;;;;;;;39.60;16.63;;;22.30;93.10;;;;;;5033632;28;20033;-68
2023/09/07 07:09:55;;;;;;;32.92;16.30;;;22.40;92.10;;;;;;5035190;28;20025;-69
2023/09/07 07:12:21;;;;;;;35.60;17.85;;;22.90;91.30;;;;;;5035033;28;20035;-69
2023/09/07 07:14:47;;;;;;;29.27;15.98;;;23.10;88.40;;;;;;5028391;28;20025;-68
2023/09/07 07:17:14;;;;;;;32.90;16.52;;;23.40;87.90;;;;;;5035923;28;20120;-68
2023/09/07 07:19:41;;;;;;;32.15;15.65;;;23.50;85.00;;;;;;5035804;28;20040;-69
2023/09/07 07:22:07;;;;;;;26.02;14.05;;;23.50;85.60;;;;;;5036706;28;20045;-69
2023/09/07 07:24:34;;;;;;;22.95;12.57;;;23.40;85.20;;;;;;5034597;28;20030;-69
2023/09/07 07:27:00;;;;;;;22.60;12.10;;;23.80;85.90;;;;;;5034878;28;20387;-69
2023/09/07 07:29:29;;;;;;;19.23;11.65;;;24.30;85.50;;;;;;5032781;28;20068;-68
2023/09/07 07:31:55;;;;;;;23.13;11.95;;;24.50;79.60;;;;;;5036198;28;20053;-69
2023/09/07 07:34:21;;;;;;;23.23;12.35;;;24.90;81.50;;;;;;5037035;28;20499;-69
2023/09/07 07:36:48;;;;;;;24.25;12.60;;;25.40;76.80;;;;;;5034963;28;20116;-69
2023/09/07 07:39:15;;;;;;;27.15;12.80;;;25.30;76.60;;;;;;5033525;28;20025;-69
2023/09/07 07:41:42;;;;;;;31.63;13.65;;;25.70;73.60;;;;;;5035285;28;20188;-69
2023/09/07 07:44:09;;;;;;;29.70;15.02;;;25.90;74.70;;;;;;5034864;28;20022;-69
2023/09/07 07:46:35;;;;;;;28.80;13.05;;;25.80;72.80;;;;;;5035306;28;20036;-69
2023/09/07 07:49:01;;;;;;;30.98;19.27;;;26.00;71.80;;;;;;5034535;28;20030;-69
2023/09/07 07:51:28;;;;;;;24.15;14.90;;;26.60;70.10;;;;;;5034632;28;20038;-69
2023/09/07 07:53:58;;;;;;;33.85;15.55;;;26.10;67.20;;;;;;5035037;28;20113;-69
2023/09/07 07:56:25;;;;;;;32.10;15.47;;;26.60;68.70;;;;;;5017610;28;20460;-69
2023/09/07 07:58:54;;;;;;;24.65;14.88;;;27.00;67.00;;;;;;5015146;28;20036;-69
2023/09/07 08:01:20;;;;;;;23.02;13.00;;;27.30;65.10;;;;;;5023870;28;20025;-69
2023/09/07 08:03:52;;;;;;;28.42;13.00;;;27.70;61.60;;;;;;5015089;28;20100;-69
2023/09/07 08:06:18;;;;;;;31.35;14.70;;;27.90;61.90;;;;;;5043975;28;20051;-69
2023/09/07 08:08:45;;;;;;;28.98;13.52;;;28.10;59.80;;;;;;5034884;28;20092;-69
2023/09/07 08:11:12;;;;;;;23.42;12.60;;;27.50;59.20;;;;;;5027194;28;20069;-69
2023/09/07 08:13:39;;;;;;;27.63;12.15;;;28.00;57.70;;;;;;5041894;28;20022;-69
2023/09/07 08:16:06;;;;;;;29.20;12.52;;;28.50;56.60;;;;;;5031748;28;20040;-69
2023/09/07 08:18:35;;;;;;;23.88;11.63;;;28.40;58.90;;;;;;5035155;28;20025;-68
2023/09/07 08:21:19;;;;;;;22.90;12.43;;;28.40;56.00;;;;;;5033954;28;20032;-69
2023/09/07 08:23:48;;;;;;;18.42;11.20;;;28.20;56.10;;;;;;5018560;28;20044;-69
2023/09/07 08:26:15;;;;;;;18.88;11.40;;;27.90;56.20;;;;;;5034304;28;20124;-69
2023/09/07 08:28:46;;;;;;;19.67;10.95;;;28.30;54.10;;;;;;5034345;28;20239;-69
2023/09/07 08:31:20;;;;;;;27.73;11.73;;;28.70;55.20;;;;;;5035639;28;20475;-69
2023/09/07 08:33:50;;;;;;;23.42;11.30;;;29.20;53.00;;;;;;5032854;28;20155;-69
2023/09/07 08:36:17;;;;;;;21.50;11.18;;;29.00;53.10;;;;;;5034651;28;20021;-70
2023/09/07 08:38:43;;;;;;;19.27;10.77;;;29.20;51.60;;;;;;5035423;28;20112;-69
2023/09/07 08:41:23;;;;;;;18.25;9.88;;;29.50;51.20;;;;;;5033440;28;20084;-69
2023/09/07 08:43:53;;;;;;;30.83;12.32;;;29.20;50.10;;;;;;5050736;28;20037;-69
2023/09/07 08:46:23;;;;;;;24.25;12.70;;;29.60;50.90;;;;;;5025111;28;20398;-70
2023/09/07 08:48:50;;;;;;;22.40;10.75;;;30.00;49.90;;;;;;5033408;28;20104;-69
2023/09/07 08:51:18;;;;;;;19.50;10.80;;;30.30;48.60;;;;;;5035062;28;20035;-69
2023/09/07 08:53:46;;;;;;;26.40;11.52;;;30.50;48.40;;;;;;5034494;28;20025;-69
2023/09/07 08:56:13;;;;;;;21.17;11.43;;;30.20;50.10;;;;;;5034497;28;20117;-70
2023/09/07 08:58:42;;;;;;;20.55;10.43;;;28.80;49.40;;;;;;5035500;28;20470;-69
2023/09/07 09:01:10;;;;;;;18.50;10.45;;;29.10;49.40;;;;;;5034417;28;20025;-70
2023/09/07 09:03:37;;;;;;;19.13;10.07;;;29.60;48.80;;;;;;5033833;28;20036;-70
2023/09/07 09:06:05;;;;;;;22.45;10.82;;;29.70;47.50;;;;;;5034411;28;20450;-70
2023/09/07 09:08:45;;;;;;;25.30;12.57;;;30.10;48.00;;;;;;5033741;28;20036;-70
2023/09/07 09:11:12;;;;;;;29.48;11.90;;;30.40;47.40;;;;;;5019133;28;20037;-70
2023/09/07 09:13:40;;;;;;;22.05;10.48;;;30.50;47.90;;;;;;5035162;28;20069;-70
2023/09/07 09:16:06;;;;;;;21.10;9.90;;;31.10;48.20;;;;;;5034861;28;20040;-70
2023/09/07 09:18:47;;;;;;;20.27;9.88;;;31.30;47.40;;;;;;5035221;28;20108;-71
2023/09/07 09:21:16;;;;;;;17.10;9.00;;;31.50;43.40;;;;;;5032479;28;20125;-71
2023/09/07 09:23:47;;;;;;;23.95;8.85;;;31.60;42.90;;;;;;5034487;28;20052;-71
2023/09/07 09:26:17;;;;;;;24.25;9.80;;;31.60;42.40;;;;;;5034432;28;20033;-70
2023/09/07 09:28:46;;;;;;;25.37;10.07;;;31.00;44.30;;;;;;5032721;28;20121;-71
2023/09/07 09:31:14;;;;;;;28.85;12.25;;;30.80;43.70;;;;;;5034549;28;20103;-72
2023/09/07 09:33:47;;;;;;;19.33;9.48;;;31.40;43.10;;;;;;5033938;28;20049;-72
2023/09/07 09:36:13;;;;;;;19.73;8.80;;;31.80;41.60;;;;;;5020574;28;20022;-71
2023/09/07 09:38:40;;;;;;;15.70;8.88;;;31.90;41.40;;;;;;5035372;28;20037;-71
2023/09/07 09:41:07;;;;;;;20.40;8.48;;;32.10;39.50;;;;;;5035588;28;20057;-71
2023/09/07 09:43:33;;;;;;;20.73;8.38;;;31.90;40.30;;;;;;5035456;28;20082;-70
2023/09/07 09:46:00;;;;;;;20.23;8.77;;;32.20;38.60;;;;;;5035362;28;20116;-70
2023/09/07 09:48:27;;;;;;;20.25;8.65;;;32.10;38.80;;;;;;5035438;28;20026;-71
2023/09/07 09:50:53;;;;;;;15.10;8.15;;;32.10;40.00;;;;;;5024391;28;20404;-71
2023/09/07 09:53:20;;;;;;;19.00;8.32;;;32.50;37.50;;;;;;5028611;28;20021;-71
2023/09/07 09:55:52;;;;;;;17.70;9.80;;;32.60;37.50;;;;;;5034343;28;20045;-71
2023/09/07 09:58:18;;;;;;;15.35;8.32;;;32.80;36.50;;;;;;5034058;28;20505;-70
2023/09/07 10:00:47;;;;;;;18.95;7.60;;;32.60;36.90;;;;;;5034256;28;20030;-70
2023/09/07 10:03:23;;;;;;;13.27;6.40;;;32.70;37.90;;;;;;5031478;28;20037;-71
2023/09/07 10:05:49;;;;;;;13.32;6.93;;;32.60;34.70;;;;;;5033956;28;20505;-71
2023/09/07 10:08:18;;;;;;;13.13;7.45;;;31.80;36.60;;;;;;5034329;28;20053;-69
2023/09/07 10:10:47;;;;;;;38.03;9.18;;;32.40;36.00;;;;;;5034262;28;20388;-72
2023/09/07 10:13:29;;;;;;;13.30;8.95;;;32.80;35.70;;;;;;5034305;28;20026;-70
2023/09/07 10:16:08;;;;;;;15.88;8.15;;;32.30;36.70;;;;;;5033129;28;20034;-72
2023/09/07 10:18:36;;;;;;;21.83;7.93;;;32.80;36.20;;;;;;5033804;28;20104;-70
2023/09/07 10:21:02;;;;;;;16.88;8.20;;;33.00;36.30;;;;;;5033912;28;20022;-71
2023/09/07 10:23:40;;;;;;;17.92;8.27;;;33.00;34.80;;;;;;5034070;28;20033;-70
2023/09/07 10:26:13;;;;;;;15.75;7.97;;;32.80;36.40;;;;;;5033844;28;20104;-69
2023/09/07 10:28:39;;;;;;;17.45;8.43;;;32.90;36.30;;;;;;5033972;28;20021;-70
2023/09/07 10:31:17;;;;;;;12.15;4.70;;;33.00;35.00;;;;;;5032616;28;20455;-68
2023/09/07 10:33:43;;;;;;;7.57;3.83;;;32.90;27.90;;;;;;5034084;28;20037;-70
2023/09/07 10:36:27;;;;;;;8.60;3.95;;;31.80;27.80;;;;;;5033048;28;20527;-69
2023/09/07 10:38:56;;;;;;;6.45;3.58;;;31.10;29.10;;;;;;5030638;28;20060;-68
2023/09/07 10:41:22;;;;;;;6.28;3.75;;;30.90;28.80;;;;;;5017853;28;20476;-69
2023/09/07 10:43:52;;;;;;;7.78;5.03;;;30.20;29.80;;;;;;5017826;28;20121;-70
2023/09/07 10:46:20;;;;;;;10.75;5.88;;;30.40;30.30;;;;;;5018176;28;20034;-69
2023/09/07 10:48:52;;;;;;;7.93;3.67;;;30.60;30.20;;;;;;5034037;28;20025;-69
2023/09/07 10:51:21;;;;;;;21.45;9.05;;;30.60;28.40;;;;;;5037342;28;20161;-69
2023/09/07 10:53:47;;;;;;;8.50;4.85;;;29.80;30.00;;;;;;5037138;28;20045;-69
2023/09/07 10:56:13;;;;;;;14.10;5.72;;;30.90;28.70;;;;;;5036272;28;20036;-69
2023/09/07 10:58:43;;;;;;;15.20;4.43;;;31.40;28.60;;;;;;5037127;28;20013;-69
2023/09/07 11:01:10;;;;;;;11.60;3.97;;;31.90;27.60;;;;;;5037470;28;20134;-68
2023/09/07 11:03:37;;;;;;;9.20;3.75;;;31.20;28.30;;;;;;5037253;28;20654;-69
2023/09/07 11:06:11;;;;;;;6.75;3.75;;;31.60;29.30;;;;;;5034715;28;20105;-69
2023/09/07 11:08:41;;;;;;;13.57;4.10;;;32.30;26.90;;;;;;5029770;28;20126;-68
2023/09/07 11:11:08;;;;;;;;;;;32.80;28.60;;;;;;5037535;28;20394;-69
2023/09/07 11:13:35;;;;;;;9.35;3.90;;;32.30;26.60;;;;;;5036175;28;19905;-69
2023/09/07 11:16:02;;;;;;;7.40;3.47;;;32.60;26.70;;;;;;5036351;28;20033;-69
2023/09/07 11:18:28;;;;;;;8.73;4.80;;;32.80;25.70;;;;;;5032995;28;20116;-70
2023/09/07 11:20:56;;;;;;;7.30;3.60;;;31.80;27.70;;;;;;5030115;28;20451;-68
2023/09/07 11:23:25;;;;;;;18.67;4.35;;;31.10;27.40;;;;;;5036539;28;20059;-68
2023/09/07 11:25:51;;;;;;;12.00;4.10;;;29.80;29.30;;;;;;5035429;28;20048;-69
2023/09/07 11:28:18;;;;;;;12.65;4.25;;;30.40;29.50;;;;;;5036302;28;20494;-69
2023/09/07 11:30:51;;;;;;;7.22;5.15;;;30.40;29.00;;;;;;5031047;28;20098;-69
2023/09/07 11:33:17;;;;;;;8.88;3.97;;;30.30;29.10;;;;;;5036900;28;20495;-68
2023/09/07 11:35:43;;;;;;;11.13;4.85;;;30.20;28.80;;;;;;5036891;28;20112;-69
2023/09/07 11:38:15;;;;;;;6.70;3.55;;;30.10;30.00;;;;;;5036658;28;20064;-69
2023/09/07 11:40:44;;;;;;;9.52;4.20;;;30.10;29.60;;;;;;5036475;28;20021;-68
2023/09/07 11:43:15;;;;;;;15.82;3.75;;;29.80;30.40;;;;;;5035971;28;20088;-69
2023/09/07 11:45:42;;;;;;;8.60;4.30;;;29.30;30.40;;;;;;5031403;28;20475;-69
2023/09/07 11:48:09;;;;;;;9.50;4.28;;;29.60;30.00;;;;;;5025466;28;20022;-69
2023/09/07 11:50:35;;;;;;;12.98;5.00;;;29.50;31.00;;;;;;5033280;28;20044;-68
2023/09/07 11:53:02;;;;;;;7.70;4.60;;;29.10;32.70;;;;;;5033892;28;20024;-69
2023/09/07 11:55:28;;;;;;;8.48;4.28;;;29.80;32.10;;;;;;5035872;28;20147;-69
2023/09/07 11:57:54;;;;;;;8.57;4.28;;;30.60;31.90;;;;;;5040914;28;20029;-69
2023/09/07 12:00:22;;;;;;;13.00;4.38;;;31.40;30.70;;;;;;5035138;28;20032;-69
2023/09/07 12:02:48;;;;;;;18.08;5.50;;;31.80;29.50;;;;;;5021294;28;20084;-69
2023/09/07 12:05:15;;;;;;;10.80;4.70;;;31.90;27.80;;;;;;5024762;28;20049;-69
2023/09/07 12:07:45;;;;;;;10.70;4.93;;;32.30;27.70;;;;;;5035504;28;20111;-69
2023/09/07 12:10:14;;;;;;;9.70;4.57;;;32.50;27.50;;;;;;5036090;28;20438;-69
2023/09/07 12:12:41;;;;;;;11.65;4.40;;;32.30;26.80;;;;;;5035103;28;20053;-69
2023/09/07 12:15:08;;;;;;;15.40;5.32;;;32.30;26.90;;;;;;5027699;28;20034;-69
2023/09/07 12:17:34;;;;;;;10.65;5.22;;;32.20;26.80;;;;;;5033267;28;20034;-69
2023/09/07 12:20:00;;;;;;;12.60;4.65;;;32.30;27.10;;;;;;5036339;28;20030;-69
2023/09/07 12:22:27;;;;;;;11.05;4.82;;;32.70;27.50;;;;;;5035740;28;20422;-69
2023/09/07 12:24:53;;;;;;;10.77;4.68;;;32.30;26.80;;;;;;5029920;28;20459;-69
2023/09/07 12:27:19;;;;;;;9.50;4.53;;;32.80;27.10;;;;;;5033380;28;20090;-68
2023/09/07 12:29:45;;;;;;;18.55;5.40;;;33.10;26.80;;;;;;5033866;28;20498;-69
2023/09/07 12:32:11;;;;;;;10.25;4.68;;;33.00;25.70;;;;;;5031218;28;20052;-69